KAC625 OKKK-OTHH
Flight info
| Callsign | KAC625 |
|---|---|
| Flight time | N/A |
| Altitude | 27000 |
| Route | BOXIK B416 IMDOX P975 LONOS L703 HAYYA |
| Aircraft | B77W/H-SDE1E2E3FGHIJ2J3J4J5M1RWXY/LB1D1 |
Departure
| Time | 2026-04-28 15:39 |
|---|---|
| Airport | Kuwait International Airport (OKKK) |
Arrival
| Time | N/A |
|---|---|
| Airport | Hamad International Airport (OTHH) |
| Time | Latitude | Longitude | Altitude | Speed | Heading |
|---|---|---|---|---|---|
| 2026-04-28 15:09 | 29.23809 | 47.97318 | 172 ft | 0 kts | 245° |
| 2026-04-28 15:27 | 29.23817 | 47.97337 | 154 ft | 4 kts | 238° |
| 2026-04-28 15:27 | 29.23834 | 47.97360 | 159 ft | 4 kts | 213° |
| 2026-04-28 15:27 | 29.23858 | 47.97372 | 172 ft | 4 kts | 183° |
| 2026-04-28 15:27 | 29.23877 | 47.97370 | 172 ft | 0 kts | 155° |
| 2026-04-28 15:30 | 29.23873 | 47.97372 | 172 ft | 1 kts | 155° |
| 2026-04-28 15:31 | 29.23857 | 47.97380 | 172 ft | 4 kts | 155° |
| 2026-04-28 15:31 | 29.23818 | 47.97400 | 172 ft | 8 kts | 155° |
| 2026-04-28 15:31 | 29.23753 | 47.97434 | 172 ft | 12 kts | 155° |
| 2026-04-28 15:31 | 29.23666 | 47.97448 | 172 ft | 14 kts | 217° |
| 2026-04-28 15:32 | 29.23614 | 47.97345 | 172 ft | 16 kts | 246° |
| 2026-04-28 15:32 | 29.23582 | 47.97261 | 172 ft | 18 kts | 246° |
| 2026-04-28 15:32 | 29.23519 | 47.97103 | 171 ft | 15 kts | 246° |
| 2026-04-28 15:32 | 29.23496 | 47.96979 | 170 ft | 18 kts | 272° |
| 2026-04-28 15:33 | 29.23517 | 47.96829 | 169 ft | 18 kts | 280° |
| 2026-04-28 15:33 | 29.23515 | 47.96715 | 168 ft | 11 kts | 229° |
| 2026-04-28 15:33 | 29.23460 | 47.96720 | 168 ft | 10 kts | 157° |
| 2026-04-28 15:33 | 29.23393 | 47.96754 | 169 ft | 12 kts | 156° |
| 2026-04-28 15:34 | 29.23308 | 47.96797 | 169 ft | 15 kts | 155° |
| 2026-04-28 15:34 | 29.23202 | 47.96853 | 169 ft | 18 kts | 155° |
| 2026-04-28 15:34 | 29.23084 | 47.96916 | 172 ft | 19 kts | 155° |
| 2026-04-28 15:34 | 29.22952 | 47.96986 | 172 ft | 22 kts | 155° |
| 2026-04-28 15:35 | 29.22799 | 47.97066 | 172 ft | 26 kts | 155° |
| 2026-04-28 15:35 | 29.22457 | 47.97247 | 172 ft | 27 kts | 155° |
| 2026-04-28 15:35 | 29.22286 | 47.97339 | 172 ft | 27 kts | 155° |
| 2026-04-28 15:36 | 29.22114 | 47.97431 | 171 ft | 27 kts | 155° |
| 2026-04-28 15:36 | 29.21943 | 47.97521 | 171 ft | 27 kts | 155° |
| 2026-04-28 15:36 | 29.21770 | 47.97612 | 171 ft | 27 kts | 155° |
| 2026-04-28 15:36 | 29.21599 | 47.97703 | 173 ft | 27 kts | 155° |
| 2026-04-28 15:37 | 29.21430 | 47.97792 | 174 ft | 21 kts | 155° |
| 2026-04-28 15:37 | 29.21328 | 47.97846 | 175 ft | 16 kts | 155° |
| 2026-04-28 15:37 | 29.21246 | 47.97786 | 175 ft | 16 kts | 259° |
| 2026-04-28 15:37 | 29.21267 | 47.97706 | 175 ft | 16 kts | 298° |
| 2026-04-28 15:38 | 29.21364 | 47.97581 | 174 ft | 15 kts | 330° |
| 2026-04-28 15:38 | 29.21398 | 47.97563 | 174 ft | 2 kts | 335° |
| 2026-04-28 15:38 | 29.21596 | 47.97457 | 172 ft | 73 kts | 334° |
| 2026-04-28 15:38 | 29.22301 | 47.97084 | 171 ft | 147 kts | 336° |
| 2026-04-28 15:39 | 29.23353 | 47.96566 | 607 ft | 169 kts | 335° |
| 2026-04-28 15:39 | 29.24460 | 47.96068 | 1267 ft | 179 kts | 332° |
| 2026-04-28 15:39 | 29.25589 | 47.95462 | 1992 ft | 182 kts | 326° |
| 2026-04-28 15:39 | 29.26786 | 47.94772 | 2429 ft | 206 kts | 328° |
| 2026-04-28 15:40 | 29.28177 | 47.93997 | 2713 ft | 239 kts | 329° |
| 2026-04-28 15:40 | 29.29733 | 47.93159 | 3317 ft | 253 kts | 330° |
| 2026-04-28 15:40 | 29.31386 | 47.92280 | 3873 ft | 269 kts | 330° |
| 2026-04-28 15:40 | 29.33189 | 47.91597 | 3980 ft | 282 kts | 350° |
| 2026-04-28 15:41 | 29.35165 | 47.91777 | 3994 ft | 291 kts | 12° |
| 2026-04-28 15:41 | 29.37014 | 47.92762 | 4027 ft | 298 kts | 32° |
| 2026-04-28 15:41 | 29.38530 | 47.94375 | 4142 ft | 298 kts | 51° |